Upton, Pennsylvania
Current Conditions -  °F | °C
As of 11:53 PM on Thursday 30 Oct 2014 (Local Time) from KHGR Reporting Station
Clear Clear  
Wind Chill: 46°   Ceiling: Unl
Heat Index: 46°   Visibility: 10mi
Dew Point: 35°   Wind: 0mph
Humidity: 66%   Direction: NA
Pressure: 30.03"   Gusts: NA
Location:  39.7874°N, 77.754°W
Report Text: KHGR 310353Z AUTO 00000KT 10SM CLR 08/02 A3003 RMK AO2 SLP181 T00780017
Loading
Personal Weather Stations






























Interactive Weather Map
Tropical Storm Tracking
New forecast layout! Learn more

10-Day Weather Forecast

Advertisements
Track Severe Weather on mobile